Time;durP1;ratioP1;P1;durP2;ratioP2;P2;SDS_P1;SDS_P2;PMS_P1;PMS_P2;Temp;Humidity;BMP_temperature;BMP_pressure;BME280_temperature;BME280_humidity;BME280_pressure;Samples;Min_cycle;Max_cycle;Signal;HPM_P1;HPM_P2
2021/12/14 00:01:36;;;;;;;29.77;15.10;;;;;;;7.28;100.00;102668.78;5139906;27;20426;-47
2021/12/14 00:04:10;;;;;;;27.65;15.77;;;;;;;7.26;100.00;102665.38;5136622;27;20034;-47
2021/12/14 00:06:37;;;;;;;32.53;15.23;;;;;;;7.27;100.00;102666.22;5123180;27;20027;-47
2021/12/14 00:09:05;;;;;;;29.90;15.38;;;;;;;7.26;100.00;102660.06;5141602;27;20602;-46
2021/12/14 00:16:50;;;;;;;30.48;16.08;;;;;;;7.24;100.00;102661.94;5136579;27;20018;-46
2021/12/14 00:19:17;;;;;;;27.27;14.25;;;;;;;7.24;100.00;102669.06;5142164;27;20486;-47
2021/12/14 00:21:48;;;;;;;25.88;13.55;;;;;;;7.21;100.00;102661.28;5141333;27;20435;-48
2021/12/14 00:24:15;;;;;;;27.17;15.07;;;;;;;7.25;100.00;102670.78;5140975;27;20022;-50
2021/12/14 00:26:55;;;;;;;32.28;15.60;;;;;;;7.25;100.00;102668.13;5142310;27;20019;-47
2021/12/14 00:29:34;;;;;;;24.73;14.02;;;;;;;7.23;100.00;102667.34;5141934;27;20050;-46
2021/12/14 00:32:06;;;;;;;27.88;14.27;;;;;;;7.25;100.00;102673.44;5136658;27;20018;-47
2021/12/14 00:34:38;;;;;;;29.60;14.30;;;;;;;7.23;100.00;102670.88;5138708;27;20029;-47
2021/12/14 00:37:10;;;;;;;32.88;14.95;;;;;;;7.23;100.00;102678.84;5135991;27;20018;-47
2021/12/14 00:39:36;;;;;;;35.78;15.20;;;;;;;7.23;100.00;102686.81;5141460;27;20502;-49
2021/12/14 00:42:02;;;;;;;27.77;14.00;;;;;;;7.23;100.00;102692.13;5142162;27;20051;-47
2021/12/14 00:44:27;;;;;;;30.98;14.68;;;;;;;7.24;100.00;102698.31;5123748;27;20069;-48
2021/12/14 00:46:53;;;;;;;29.23;15.10;;;;;;;7.23;100.00;102688.59;5113896;27;20058;-50
2021/12/14 00:49:18;;;;;;;27.42;14.80;;;;;;;7.22;100.00;102702.84;5100441;28;20101;-46
2021/12/14 00:51:44;;;;;;;27.15;14.60;;;;;;;7.20;100.00;102707.41;5099718;28;20068;-46
2021/12/14 00:54:12;;;;;;;31.98;15.18;;;;;;;7.19;100.00;102709.19;5100159;28;20030;-49
2021/12/14 00:56:39;;;;;;;31.65;15.02;;;;;;;7.19;100.00;102703.88;5101323;28;20115;-48
2021/12/14 00:59:07;;;;;;;29.20;15.52;;;;;;;7.19;100.00;102713.66;5084337;28;20491;-48
2021/12/14 01:01:37;;;;;;;28.70;14.68;;;;;;;7.18;100.00;102701.31;5088931;28;20414;-46
2021/12/14 01:04:07;;;;;;;30.80;16.00;;;;;;;7.16;100.00;102700.56;5078703;28;20062;-46
2021/12/14 01:06:36;;;;;;;29.27;17.02;;;;;;;7.15;100.00;102689.09;5082279;28;20024;-45
2021/12/14 01:09:05;;;;;;;31.98;16.55;;;;;;;7.13;100.00;102685.69;5098246;28;20118;-47
2021/12/14 01:11:37;;;;;;;34.90;17.65;;;;;;;7.14;100.00;102689.19;5101148;28;20137;-47
2021/12/14 01:14:11;;;;;;;36.90;18.15;;;;;;;7.13;100.00;102687.47;5100327;28;20134;-44
2021/12/14 01:17:39;;;;;;;38.55;17.30;;;;;;;7.12;100.00;102683.09;5100171;28;20109;-45
2021/12/14 01:19:36;;;;;;;32.40;17.35;;;;;;;7.12;100.00;102691.09;5091552;28;20145;-47
2021/12/14 01:22:20;;;;;;;34.72;17.90;;;;;;;7.09;100.00;102690.31;5096999;28;20106;-45
2021/12/14 01:27:31;;;;;;;30.65;17.27;;;;;;;7.10;100.00;102676.06;5100015;28;20441;-47
2021/12/14 01:29:57;;;;;;;43.45;18.13;;;;;;;7.09;100.00;102669.06;5099801;28;20569;-46
2021/12/14 01:32:26;;;;;;;34.70;16.45;;;;;;;7.08;100.00;102672.66;5100403;28;20102;-47
2021/12/14 01:34:52;;;;;;;32.35;17.00;;;;;;;7.06;100.00;102663.94;5079719;28;20016;-46
2021/12/14 01:37:23;;;;;;;31.80;15.80;;;;;;;7.07;100.00;102672.75;5078737;28;20076;-45
2021/12/14 01:40:04;;;;;;;;;;;;;;;7.08;100.00;102669.16;5078251;28;20032;-47
2021/12/14 01:42:40;;;;;;;35.28;16.25;;;;;;;7.06;100.00;102674.56;5079685;28;19982;-47
2021/12/14 01:45:14;;;;;;;33.75;17.40;;;;;;;7.06;100.00;102663.94;5079407;28;20047;-46
2021/12/14 01:47:50;;;;;;;39.92;17.00;;;;;;;7.07;100.00;102672.75;5103827;27;20436;-43
2021/12/14 01:50:38;;;;;;;34.55;17.38;;;;;;;7.06;100.00;102676.34;5120333;27;20042;-44
2021/12/14 01:53:04;;;;;;;35.50;17.77;;;;;;;7.05;100.00;102667.53;5117100;27;20533;-43
2021/12/14 01:55:35;;;;;;;35.58;17.77;;;;;;;7.03;100.00;102650.84;5120609;27;20058;-45
2021/12/14 01:58:04;;;;;;;36.28;16.85;;;;;;;7.04;100.00;102654.34;5119570;27;20022;-45
2021/12/14 02:00:41;;;;;;;36.05;17.60;;;;;;;7.04;100.00;102657.00;5120077;27;20053;-45
2021/12/14 02:03:09;;;;;;;46.28;18.08;;;;;;;7.01;100.00;102644.75;5118988;27;20098;-45
2021/12/14 02:05:50;;;;;;;37.10;18.52;;;;;;;6.99;100.00;102625.41;5119279;27;20027;-43
2021/12/14 02:08:20;;;;;;;37.88;17.10;;;;;;;7.00;100.00;102628.91;5118543;27;20027;-47
2021/12/14 02:10:47;;;;;;;36.47;17.70;;;;;;;6.98;100.00;102631.66;5118948;27;20023;-45
2021/12/14 02:13:20;;;;;;;36.17;17.77;;;;;;;6.98;100.00;102636.97;5119480;27;20531;-44
2021/12/14 02:15:46;;;;;;;38.05;16.65;;;;;;;6.97;100.00;102645.88;5102013;27;20371;-47
2021/12/14 02:18:15;;;;;;;35.13;15.70;;;;;;;6.98;100.00;102652.91;5120114;27;20048;-47
2021/12/14 02:20:56;;;;;;;31.88;15.45;;;;;;;6.98;100.00;102660.03;5124507;27;20023;-50
2021/12/14 02:23:22;;;;;;;35.70;15.50;;;;;;;6.96;100.00;102641.53;5138602;27;20135;-46
2021/12/14 02:25:49;;;;;;;32.72;16.45;;;;;;;6.95;100.00;102646.94;5139964;27;20046;-47
2021/12/14 02:28:18;;;;;;;31.27;15.38;;;;;;;6.94;100.00;102648.72;5140302;27;20019;-48
2021/12/14 02:30:47;;;;;;;31.42;14.43;;;;;;;6.94;100.00;102642.56;5121381;27;20022;-47
2021/12/14 02:33:19;;;;;;;31.70;14.65;;;;;;;6.91;100.00;102648.94;5139717;27;20031;-45
2021/12/14 02:35:47;;;;;;;32.97;14.00;;;;;;;6.91;100.00;102652.44;5120297;27;20042;-46
2021/12/14 02:38:13;;;;;;;29.05;14.13;;;;;;;6.89;100.00;102659.66;5138107;27;20023;-47
2021/12/14 02:40:54;;;;;;;33.15;15.35;;;;;;;6.89;100.00;102645.50;5139925;27;20050;-44
2021/12/14 02:43:34;;;;;;;32.50;14.10;;;;;;;6.85;100.00;102652.78;5139978;27;20064;-44
2021/12/14 02:46:11;;;;;;;31.55;14.13;;;;;;;6.89;100.00;102654.34;5139681;27;20036;-44
2021/12/14 02:48:39;;;;;;;28.15;14.05;;;;;;;6.88;100.00;102647.31;5137957;27;20487;-44
2021/12/14 02:51:11;;;;;;;28.70;13.75;;;;;;;6.86;100.00;102641.22;5139293;27;20039;-46
2021/12/14 02:53:38;;;;;;;29.40;14.40;;;;;;;6.85;100.00;102636.84;5138746;27;20030;-48
2021/12/14 02:56:10;;;;;;;26.90;12.90;;;;;;;6.85;100.00;102634.19;5140052;27;20019;-45
2021/12/14 02:58:35;;;;;;;32.55;14.02;;;;;;;6.82;100.00;102631.75;5139120;27;20277;-44
2021/12/14 03:01:01;;;;;;;28.83;13.05;;;;;;;6.84;100.00;102636.94;5139388;27;20027;-43
2021/12/14 03:03:27;;;;;;;28.17;13.15;;;;;;;6.82;100.00;102634.41;5139974;27;20055;-46
2021/12/14 03:05:52;;;;;;;28.83;12.88;;;;;;;6.82;100.00;102617.59;5119924;27;20119;-48
2021/12/14 03:08:27;;;;;;;29.15;13.40;;;;;;;6.79;100.00;102612.47;5138272;27;20045;-46
2021/12/14 03:11:10;;;;;;;30.52;11.65;;;;;;;6.78;100.00;102613.44;5138841;27;20119;-46
2021/12/14 03:13:37;;;;;;;23.75;10.98;;;;;;;6.76;100.00;102592.28;5139464;27;20026;-47
2021/12/14 03:16:07;;;;;;;27.45;11.90;;;;;;;6.75;100.00;102600.34;5139782;27;20393;-44
2021/12/14 03:18:40;;;;;;;23.20;10.73;;;;;;;6.73;100.00;102609.25;5138842;27;20061;-44
2021/12/14 03:21:10;;;;;;;30.38;10.63;;;;;;;6.75;100.00;102609.16;5138617;27;20140;-48
2021/12/14 03:23:43;;;;;;;26.80;10.75;;;;;;;6.76;100.00;102602.91;5137955;27;20031;-47
2021/12/14 03:26:11;;;;;;;27.58;9.45;;;;;;;6.75;100.00;102605.66;5139796;27;20026;-47
2021/12/14 03:28:38;;;;;;;23.65;10.52;;;;;;;6.71;100.00;102603.16;5138430;27;20490;-46
2021/12/14 03:31:21;;;;;;;27.02;10.40;;;;;;;6.71;100.00;102603.16;5140268;27;20021;-47
2021/12/14 03:33:52;;;;;;;25.35;9.95;;;;;;;6.70;100.00;102600.59;5139131;27;20033;-49
2021/12/14 03:36:23;;;;;;;24.70;9.00;;;;;;;6.69;100.00;102602.41;5138607;27;20509;-48
2021/12/14 03:39:13;;;;;;;26.58;9.77;;;;;;;6.67;100.00;102598.13;5138198;27;20033;-46
2021/12/14 03:41:44;;;;;;;22.30;8.88;;;;;;;6.66;100.00;102602.59;5139649;27;20054;-47
2021/12/14 03:44:14;;;;;;;24.85;9.20;;;;;;;6.66;100.00;102609.72;5139629;27;20082;-49
2021/12/14 03:46:51;;;;;;;25.38;10.07;;;;;;;6.65;100.00;102619.50;5142628;27;20066;-45
2021/12/14 03:49:18;;;;;;;24.02;9.40;;;;;;;6.65;100.00;102619.50;5124434;27;20026;-49
2021/12/14 03:51:45;;;;;;;25.80;9.60;;;;;;;6.65;100.00;102635.41;5141931;27;20034;-48
2021/12/14 03:54:14;;;;;;;25.73;9.20;;;;;;;6.64;100.00;102638.16;5141667;27;20312;-45
2021/12/14 03:56:39;;;;;;;24.80;9.82;;;;;;;6.64;100.00;102639.00;5143170;27;20018;-44
2021/12/14 03:59:05;;;;;;;24.40;9.65;;;;;;;6.64;100.00;102648.78;5124188;27;20481;-45
2021/12/14 04:01:36;;;;;;;31.20;10.82;;;;;;;6.64;100.00;102654.09;5132531;27;20034;-47
2021/12/14 04:04:11;;;;;;;25.10;10.10;;;;;;;6.61;100.00;102660.41;5121889;27;20038;-48
2021/12/14 04:06:38;;;;;;;25.65;10.05;;;;;;;6.62;100.00;102656.84;5121462;27;20016;-48
2021/12/14 04:09:07;;;;;;;27.13;11.35;;;;;;;6.61;100.00;102652.47;5120954;27;20027;-46
2021/12/14 04:11:33;;;;;;;25.92;10.90;;;;;;;6.62;100.00;102656.84;5122667;27;20027;-46
2021/12/14 04:13:58;;;;;;;29.65;11.60;;;;;;;6.64;100.00;102648.78;5121895;27;20394;-45
2021/12/14 04:16:25;;;;;;;30.73;11.95;;;;;;;6.61;100.00;102647.16;5121791;27;20100;-49
2021/12/14 04:18:50;;;;;;;29.40;11.55;;;;;;;6.61;100.00;102646.31;5121742;27;20535;-47
2021/12/14 04:21:16;;;;;;;32.63;11.70;;;;;;;6.60;100.00;102640.16;5102763;27;20034;-49
2021/12/14 04:23:46;;;;;;;31.83;12.77;;;;;;;6.59;100.00;102641.09;5120787;27;20393;-49
2021/12/14 04:26:13;;;;;;;40.00;13.63;;;;;;;6.60;100.00;102642.81;5122823;27;20061;-48
2021/12/14 04:28:43;;;;;;;28.60;12.00;;;;;;;6.60;100.00;102648.13;5121899;27;20023;-47
2021/12/14 04:31:09;;;;;;;29.38;12.23;;;;;;;6.61;100.00;102649.81;5122124;27;20307;-51
2021/12/14 04:33:37;;;;;;;28.70;12.32;;;;;;;6.59;100.00;102643.72;5131255;27;20402;-47
2021/12/14 04:36:08;;;;;;;35.22;13.10;;;;;;;6.59;100.00;102642.91;5141509;27;20432;-46
2021/12/14 04:38:42;;;;;;;32.77;11.77;;;;;;;6.58;100.00;102644.66;5139938;27;20018;-45
2021/12/14 04:52:08;;;;;;;29.17;12.68;;;;;;;6.53;100.00;102628.16;5141048;27;20111;-50
2021/12/14 04:54:41;;;;;;;34.15;13.32;;;;;;;6.52;100.00;102629.97;5141004;27;20030;-47
2021/12/14 04:57:33;;;;;;;38.42;13.93;;;;;;;6.53;100.00;102633.47;5141946;27;20106;-50
2021/12/14 05:00:20;;;;;;;32.97;14.32;;;;;;;6.52;100.00;102623.81;5141381;27;20275;-48
2021/12/14 05:02:46;;;;;;;34.47;14.00;;;;;;;6.50;100.00;102626.56;5121284;27;20289;-49
2021/12/14 05:05:19;;;;;;;38.30;14.25;;;;;;;6.49;100.00;102624.00;5119963;27;20064;-47
2021/12/14 05:10:40;;;;;;;36.40;14.27;;;;;;;6.52;100.00;102616.69;5121115;27;20027;-46
2021/12/14 05:13:07;;;;;;;37.17;14.70;;;;;;;6.50;100.00;102613.28;5120638;27;20023;-47
2021/12/14 05:15:37;;;;;;;41.47;15.55;;;;;;;6.53;100.00;102618.41;5120383;27;20453;-48
2021/12/14 05:18:08;;;;;;;39.72;16.27;;;;;;;6.49;100.00;102600.94;5119654;27;20468;-46
2021/12/14 05:20:33;;;;;;;44.53;15.02;;;;;;;6.49;100.00;102610.72;5104865;27;20034;-46
2021/12/14 05:23:01;;;;;;;43.75;17.45;;;;;;;6.45;100.00;102601.22;5139333;27;20042;-48
2021/12/14 05:25:28;;;;;;;40.85;16.80;;;;;;;6.47;100.00;102610.81;5123750;27;20106;-47
2021/12/14 05:27:57;;;;;;;44.28;17.48;;;;;;;6.49;100.00;102605.41;5140361;27;20076;-45
2021/12/14 05:30:27;;;;;;;41.67;16.15;;;;;;;6.50;100.00;102602.66;5141382;27;20027;-46
2021/12/14 05:33:17;;;;;;;46.17;18.52;;;;;;;6.49;100.00;102602.75;5123510;27;20105;-44
2021/12/14 05:35:47;;;;;;;42.17;15.55;;;;;;;6.50;100.00;102605.31;5139517;27;20037;-45
2021/12/14 05:38:17;;;;;;;42.70;17.77;;;;;;;6.50;100.00;102604.44;5139036;27;20072;-45
2021/12/14 05:40:57;;;;;;;45.78;17.02;;;;;;;6.50;100.00;102607.97;5139852;27;20027;-45
2021/12/14 05:43:29;;;;;;;48.58;18.52;;;;;;;6.50;100.00;102618.59;5141131;27;20026;-46
2021/12/14 05:45:59;;;;;;;46.20;18.55;;;;;;;6.52;100.00;102626.47;5140483;27;20433;-46
2021/12/14 05:48:29;;;;;;;46.00;18.77;;;;;;;6.50;100.00;102621.25;5140172;27;20095;-49
2021/12/14 05:51:00;;;;;;;43.67;17.83;;;;;;;6.49;100.00;102616.03;5139249;27;20388;-47
2021/12/14 05:53:34;;;;;;;48.63;18.90;;;;;;;6.51;100.00;102625.59;5139130;27;20117;-46
2021/12/14 05:56:06;;;;;;;53.13;20.65;;;;;;;6.51;100.00;102625.59;5139185;27;20080;-45
2021/12/14 05:58:32;;;;;;;48.83;18.35;;;;;;;6.48;100.00;102625.81;5139639;27;20091;-47
2021/12/14 06:01:03;;;;;;;55.60;20.73;;;;;;;6.50;100.00;102631.88;5139291;27;20538;-49
2021/12/14 06:03:35;;;;;;;48.15;18.80;;;;;;;6.51;100.00;102622.94;5140225;27;20046;-45
2021/12/14 06:06:02;;;;;;;50.90;19.13;;;;;;;6.49;100.00;102629.28;5138848;27;20038;-47
2021/12/14 06:08:32;;;;;;;52.13;19.60;;;;;;;6.50;100.00;102628.34;5138369;27;20030;-46
2021/12/14 06:10:58;;;;;;;57.13;23.75;;;;;;;6.50;100.00;102638.94;5120674;27;20047;-47
2021/12/14 06:13:43;;;;;;;54.95;21.20;;;;;;;6.50;100.00;102634.53;5139454;27;20022;-50
2021/12/14 06:16:21;;;;;;;56.28;21.67;;;;;;;6.48;100.00;102640.84;5139011;27;20031;-49
2021/12/14 06:18:46;;;;;;;59.60;21.90;;;;;;;6.49;100.00;102643.41;5134541;27;20014;-46
2021/12/14 06:21:12;;;;;;;56.47;20.42;;;;;;;6.49;100.00;102642.56;5118223;27;20457;-48
2021/12/14 06:23:39;;;;;;;64.47;23.35;;;;;;;6.49;100.00;102648.72;5129370;27;20039;-48
2021/12/14 06:26:04;;;;;;;57.80;22.25;;;;;;;6.50;100.00;102644.25;5100416;27;20447;-47
2021/12/14 06:28:29;;;;;;;55.63;22.70;;;;;;;6.45;100.00;102635.72;5119550;27;20102;-49
2021/12/14 06:30:57;;;;;;;63.22;23.73;;;;;;;6.51;100.00;102640.69;5117552;27;20513;-47
2021/12/14 06:33:26;;;;;;;61.20;22.42;;;;;;;6.50;100.00;102647.78;5128031;27;20121;-45
2021/12/14 06:35:54;;;;;;;58.65;22.48;;;;;;;6.49;100.00;102639.91;5138321;27;20431;-48
2021/12/14 06:38:28;;;;;;;62.03;22.83;;;;;;;6.50;100.00;102645.13;5139321;27;20362;-46
2021/12/14 06:41:03;;;;;;;66.70;23.27;;;;;;;6.50;100.00;102646.91;5139294;27;20385;-49
2021/12/14 06:43:47;;;;;;;60.90;22.17;;;;;;;6.50;100.00;102646.91;5140285;27;20124;-50
2021/12/14 06:46:38;;;;;;;63.67;23.13;;;;;;;6.49;100.00;102648.72;5121329;27;20393;-46
2021/12/14 06:49:05;;;;;;;62.87;22.87;;;;;;;6.47;100.00;102652.44;5127435;27;20061;-48
2021/12/14 06:51:35;;;;;;;60.03;22.40;;;;;;;6.48;100.00;102667.38;5139694;27;20172;-49
2021/12/14 06:54:07;;;;;;;67.88;22.45;;;;;;;6.47;100.00;102669.19;5138662;27;20260;-45
2021/12/14 06:56:33;;;;;;;74.57;24.63;;;;;;;6.47;100.00;102661.22;5139988;27;20521;-47
2021/12/14 06:59:10;;;;;;;65.00;22.85;;;;;;;6.44;100.00;102669.38;5139681;27;20524;-48
2021/12/14 07:01:51;;;;;;;71.13;26.27;;;;;;;6.49;100.00;102677.06;5127288;27;20083;-48
2021/12/14 07:04:21;;;;;;;62.17;22.73;;;;;;;6.49;100.00;102675.25;5118833;28;20045;-47
2021/12/14 07:06:57;;;;;;;75.60;24.20;;;;;;;6.44;100.00;102668.53;5118273;28;20027;-46
2021/12/14 07:09:30;;;;;;;66.05;24.88;;;;;;;6.47;100.00;102669.19;5119156;28;20034;-47
2021/12/14 07:12:25;;;;;;;69.47;24.20;;;;;;;6.48;100.00;102678.00;5117853;28;20035;-47
2021/12/14 07:14:53;;;;;;;73.40;25.50;;;;;;;6.46;100.00;102687.88;5119021;28;20728;-47
2021/12/14 07:17:27;;;;;;;71.93;24.95;;;;;;;6.48;100.00;102696.59;5119443;28;20023;-49
2021/12/14 07:19:56;;;;;;;75.10;26.75;;;;;;;6.47;100.00;102690.44;5119734;27;20363;-46
2021/12/14 07:22:26;;;;;;;78.45;26.05;;;;;;;6.47;100.00;102695.75;5123153;27;20241;-48
2021/12/14 07:25:09;;;;;;;73.03;24.77;;;;;;;6.48;100.00;102700.13;5104926;27;20031;-46
2021/12/14 07:27:42;;;;;;;83.18;27.02;;;;;;;6.47;100.00;102693.09;5122964;27;20027;-49
2021/12/14 07:30:10;;;;;;;86.30;27.45;;;;;;;6.47;100.00;102702.84;5123083;27;20023;-47
2021/12/14 07:32:51;;;;;;;75.03;25.27;;;;;;;6.48;100.00;102712.50;5136289;27;20043;-49
2021/12/14 07:35:24;;;;;;;78.63;27.08;;;;;;;6.48;100.00;102716.03;5142120;27;20098;-47
2021/12/14 07:37:50;;;;;;;73.60;25.45;;;;;;;6.48;100.00;102712.50;5142229;27;20026;-47
2021/12/14 07:40:15;;;;;;;74.72;25.40;;;;;;;6.50;100.00;102718.59;5143372;27;20031;-46
2021/12/14 07:42:41;;;;;;;76.40;25.48;;;;;;;6.50;100.00;102718.59;5143583;27;20073;-49
2021/12/14 07:45:08;;;;;;;90.18;28.25;;;;;;;6.52;100.00;102727.34;5143664;27;20550;-50
2021/12/14 07:47:33;;;;;;;100.32;33.13;;;;;;;6.51;100.00;102723.81;5123919;27;20102;-46
2021/12/14 07:49:59;;;;;;;104.97;34.50;;;;;;;6.53;100.00;102718.41;5142069;27;20031;-45
2021/12/14 07:52:34;;;;;;;94.00;29.73;;;;;;;6.54;100.00;102725.44;5142897;27;20042;-45
2021/12/14 07:55:21;;;;;;;77.05;27.90;;;;;;;6.54;100.00;102728.09;5143493;27;20481;-45
2021/12/14 07:57:48;;;;;;;87.10;27.80;;;;;;;6.54;100.00;102736.06;5143000;27;20181;-45
2021/12/14 08:00:18;;;;;;;86.32;28.48;;;;;;;6.54;100.00;102736.06;5143242;27;20037;-45
2021/12/14 08:02:46;;;;;;;91.95;29.23;;;;;;;6.57;100.00;102742.97;5103157;27;20023;-45
2021/12/14 08:05:28;;;;;;;92.68;29.20;;;;;;;6.58;100.00;102747.34;5121014;27;20110;-49
2021/12/14 08:08:00;;;;;;;96.93;29.48;;;;;;;6.58;100.00;102742.91;5120891;27;20038;-47
2021/12/14 08:10:39;;;;;;;82.93;26.45;;;;;;;6.56;100.00;102739.47;5123105;27;20076;-48
2021/12/14 08:13:07;;;;;;;85.35;27.90;;;;;;;6.59;100.00;102747.28;5121263;27;20530;-47
2021/12/14 08:15:39;;;;;;;88.05;30.02;;;;;;;6.60;100.00;102749.00;5122105;27;20571;-47
2021/12/14 08:18:11;;;;;;;93.72;31.85;;;;;;;6.61;100.00;102749.84;5122010;27;20119;-46
2021/12/14 08:20:41;;;;;;;;;;;;;;;6.64;100.00;102745.22;5121197;27;20113;-46
2021/12/14 08:23:21;;;;;;;97.05;28.00;;;;;;;6.63;100.00;102743.47;5119314;27;19975;-46
2021/12/14 08:25:48;;;;;;;96.63;29.17;;;;;;;6.64;100.00;102747.84;5122039;27;20063;-48
2021/12/14 08:28:14;;;;;;;90.15;29.15;;;;;;;6.64;100.00;102744.34;5122263;27;20094;-46
2021/12/14 08:30:43;;;;;;;97.50;30.50;;;;;;;6.64;100.00;102741.72;5121665;27;20302;-47
2021/12/14 08:33:21;;;;;;;92.47;30.35;;;;;;;6.68;100.00;102748.53;5126047;27;20486;-49
2021/12/14 08:35:46;;;;;;;98.10;30.90;;;;;;;6.68;100.00;102752.03;5120011;27;20034;-49
2021/12/14 08:38:15;;;;;;;102.30;31.27;;;;;;;6.69;100.00;102755.56;5141417;27;20023;-48
2021/12/14 08:40:45;;;;;;;105.00;33.28;;;;;;;6.68;100.00;102748.53;5136915;27;20132;-47
2021/12/14 08:43:22;;;;;;;97.68;31.83;;;;;;;6.71;100.00;102749.22;5141430;27;20126;-46
2021/12/14 08:45:55;;;;;;;94.40;29.73;;;;;;;6.75;100.00;102741.06;5136985;27;20457;-47
2021/12/14 08:48:29;;;;;;;96.22;31.48;;;;;;;6.77;100.00;102753.34;5141787;27;20142;-46
2021/12/14 08:50:59;;;;;;;105.32;32.45;;;;;;;6.79;100.00;102756.75;5139318;27;20466;-48
2021/12/14 08:53:29;;;;;;;101.97;32.30;;;;;;;6.84;100.00;102751.16;5135691;27;20023;-45
2021/12/14 08:55:58;;;;;;;100.10;31.63;;;;;;;6.87;100.00;102764.25;5141353;27;20102;-46
2021/12/14 08:58:25;;;;;;;99.35;31.55;;;;;;;6.89;100.00;102763.22;5120107;27;20053;-46
2021/12/14 09:00:55;;;;;;;95.32;31.23;;;;;;;6.93;100.00;102760.41;5138522;27;20534;-50
2021/12/14 09:03:32;;;;;;;102.22;34.65;;;;;;;6.94;100.00;102757.63;5122756;27;20023;-49
2021/12/14 09:06:02;;;;;;;104.53;33.58;;;;;;;6.98;100.00;102766.31;5140332;27;20029;-46
2021/12/14 09:08:28;;;;;;;95.47;29.67;;;;;;;7.02;100.00;102765.16;5141332;27;20402;-48
2021/12/14 09:10:56;;;;;;;103.07;33.17;;;;;;;7.07;100.00;102763.09;5140728;27;20136;-47
2021/12/14 09:13:22;;;;;;;99.10;33.05;;;;;;;7.07;100.00;102758.63;5140848;27;20026;-49
2021/12/14 09:15:56;;;;;;;100.78;33.38;;;;;;;7.14;100.00;102771.56;5140259;27;20063;-47
2021/12/14 09:18:23;;;;;;;98.05;31.83;;;;;;;7.20;100.00;102779.16;5138536;27;20071;-48
2021/12/14 09:20:57;;;;;;;101.93;32.60;;;;;;;7.22;100.00;102771.94;5139617;27;20504;-46
2021/12/14 09:23:27;;;;;;;93.75;32.38;;;;;;;7.25;100.00;102772.63;5134843;27;20023;-45
2021/12/14 09:25:53;;;;;;;97.32;31.52;;;;;;;7.25;100.00;102769.13;5140744;27;20014;-48
2021/12/14 09:28:19;;;;;;;107.90;34.13;;;;;;;7.25;100.00;102766.47;5140886;27;20067;-47
2021/12/14 09:30:49;;;;;;;98.47;32.25;;;;;;;7.28;100.00;102769.78;5140313;27;20029;-44
2021/12/14 09:33:16;;;;;;;99.38;32.95;;;;;;;7.29;100.00;102767.97;5137099;27;20158;-52
2021/12/14 09:35:44;;;;;;;101.47;32.88;;;;;;;7.28;100.00;102769.78;5139259;27;20612;-46
2021/12/14 09:38:12;;;;;;;104.15;35.20;;;;;;;7.27;100.00;102767.22;5140019;27;20480;-46
2021/12/14 09:40:46;;;;;;;99.82;32.78;;;;;;;7.28;100.00;102772.44;5140126;27;20034;-46
2021/12/14 09:43:11;;;;;;;100.65;32.72;;;;;;;7.30;100.00;102769.69;5136913;27;20042;-46
2021/12/14 09:45:44;;;;;;;105.82;34.17;;;;;;;7.34;100.00;102759.72;5141230;27;20114;-47
2021/12/14 09:48:17;;;;;;;97.75;35.42;;;;;;;7.36;100.00;102758.69;5141865;27;20343;-46
2021/12/14 09:50:45;;;;;;;109.68;36.75;;;;;;;7.38;100.00;102753.28;5121427;27;20027;-44
2021/12/14 09:53:14;;;;;;;101.38;34.22;;;;;;;7.41;100.00;102753.94;5140904;27;20454;-47
2021/12/14 09:55:42;;;;;;;100.75;35.15;;;;;;;7.45;100.00;102759.91;5141302;27;20509;-47
2021/12/14 09:58:12;;;;;;;107.75;36.65;;;;;;;7.42;100.00;102755.66;5141217;27;20065;-45
2021/12/14 10:00:39;;;;;;;111.38;38.55;;;;;;;7.44;100.00;102758.22;5141171;27;20046;-44
2021/12/14 10:03:05;;;;;;;101.88;34.63;;;;;;;7.47;100.00;102764.22;5141087;27;20026;-44
2021/12/14 10:05:57;;;;;;;100.57;35.33;;;;;;;7.52;100.00;102760.41;5139452;27;20029;-43
2021/12/14 10:08:47;;;;;;;100.18;33.40;;;;;;;7.57;100.00;102760.97;5140484;27;20022;-47
2021/12/14 10:11:25;;;;;;;103.72;33.67;;;;;;;7.65;100.00;102761.34;5140775;27;20054;-44
2021/12/14 10:13:55;;;;;;;108.40;33.88;;;;;;;7.73;100.00;102768.88;5121701;27;20084;-45
2021/12/14 10:16:21;;;;;;;101.43;36.05;;;;;;;7.75;100.00;102772.28;5117630;27;20035;-47
2021/12/14 10:18:53;;;;;;;103.78;35.25;;;;;;;7.76;100.00;102772.19;5120664;27;20050;-46
2021/12/14 10:21:29;;;;;;;;;;;;;;;7.84;100.00;102769.03;5140391;27;20117;-47
2021/12/14 10:23:58;;;;;;;115.82;36.50;;;;;;;7.82;100.00;102765.63;5139643;27;19919;-46
2021/12/14 10:26:24;;;;;;;98.82;35.08;;;;;;;7.85;100.00;102766.28;5140844;27;20019;-46
2021/12/14 10:28:54;;;;;;;107.47;35.95;;;;;;;7.87;100.00;102768.00;5139582;27;20031;-46
2021/12/14 10:31:31;;;;;;;106.85;36.38;;;;;;;7.93;100.00;102767.63;5140702;27;20116;-45
2021/12/14 10:34:00;;;;;;;105.72;35.78;;;;;;;7.95;100.00;102776.38;5138491;27;20097;-46
2021/12/14 10:36:37;;;;;;;111.55;35.83;;;;;;;7.95;100.00;102779.88;5140833;27;20103;-48
2021/12/14 10:44:24;;;;;;;108.22;36.33;;;;;;;7.95;100.00;102771.91;5139618;27;20053;-45
2021/12/14 10:46:52;;;;;;;104.15;36.25;;;;;;;7.97;100.00;102767.31;5135072;27;20329;-45
2021/12/14 10:49:21;;;;;;;109.53;35.95;;;;;;;7.99;100.00;102770.78;5136146;27;20049;-46
2021/12/14 10:51:50;;;;;;;110.60;37.40;;;;;;;7.95;100.00;102752.44;5120633;27;20532;-48
2021/12/14 10:54:17;;;;;;;110.82;36.35;;;;;;;8.00;100.00;102777.78;5130289;27;20046;-48
2021/12/14 10:56:46;;;;;;;107.28;36.53;;;;;;;8.01;100.00;102770.66;5139207;27;20150;-45
2021/12/14 10:59:16;;;;;;;110.28;37.20;;;;;;;8.10;100.00;102771.91;5144982;27;20034;-46
2021/12/14 11:01:48;;;;;;;106.63;37.05;;;;;;;8.14;100.00;102768.91;5144179;27;20033;-44
2021/12/14 11:04:14;;;;;;;107.80;34.90;;;;;;;8.15;100.00;102760.00;5143164;27;20023;-45
2021/12/14 11:06:44;;;;;;;110.95;37.17;;;;;;;8.18;100.00;102761.59;5143460;27;20447;-48
2021/12/14 11:09:45;;;;;;;115.53;38.75;;;;;;;8.22;100.00;102765.78;5143835;27;20090;-48
2021/12/14 11:12:24;;;;;;;108.50;35.60;;;;;;;8.30;100.00;102762.59;5127379;27;20142;-44
2021/12/14 11:14:57;;;;;;;109.18;35.78;;;;;;;8.37;100.00;102753.28;5142822;27;20048;-45
2021/12/14 11:20:34;;;;;;;108.95;36.30;;;;;;;8.49;100.00;102747.19;5142235;27;20094;-47
2021/12/14 11:23:17;;;;;;;100.30;35.10;;;;;;;8.54;100.00;102745.09;5142599;27;20063;-43
2021/12/14 11:25:54;;;;;;;112.13;36.40;;;;;;;8.62;100.00;102744.56;5143195;27;20438;-48
2021/12/14 11:28:39;;;;;;;105.82;35.70;;;;;;;8.62;100.00;102744.56;5143747;27;20027;-44
2021/12/14 11:31:16;;;;;;;107.32;36.15;;;;;;;8.70;100.00;102738.75;5142885;27;20059;-47
2021/12/14 11:33:58;;;;;;;109.28;38.65;;;;;;;8.73;100.00;102735.88;5123342;27;20512;-46
2021/12/14 11:36:25;;;;;;;;;;;;;;;8.80;100.00;102741.66;5140093;27;20015;-46
2021/12/14 11:38:56;;;;;;;113.68;37.20;;;;;;;8.78;100.00;102737.28;5141994;27;19911;-44
2021/12/14 11:41:51;;;;;;;118.63;38.30;;;;;;;8.81;100.00;102741.56;5143996;27;20045;-46
2021/12/14 11:44:28;;;;;;;114.68;37.13;;;;;;;8.75;100.00;102732.13;5140099;27;20091;-44
2021/12/14 11:47:22;;;;;;;108.93;38.78;;;;;;;8.69;100.00;102737.91;5142701;27;20069;-49
2021/12/14 11:50:18;;;;;;;120.32;41.65;;;;;;;8.65;100.00;102735.53;5141590;27;20026;-46
2021/12/14 11:52:52;;;;;;;118.93;41.20;;;;;;;8.66;100.00;102730.09;5141754;27;20051;-46
2021/12/14 11:55:44;;;;;;;138.75;40.97;;;;;;;8.66;100.00;102732.78;5142830;27;20615;-44
2021/12/14 11:58:13;;;;;;;122.45;40.30;;;;;;;8.66;100.00;102735.44;5122394;27;20030;-46
2021/12/14 12:00:42;;;;;;;125.25;39.90;;;;;;;8.67;100.00;102736.28;5122178;27;20031;-45